sensor_id;sensor_type;location;lat;lon;timestamp;temperature;humidity
73780;SHT30;62093;37.614;15.072;2023-04-24T00:00:15;17.36;59.42
73780;SHT30;62093;37.614;15.072;2023-04-24T00:02:44;17.39;59.43
73780;SHT30;62093;37.614;15.072;2023-04-24T00:05:17;17.38;59.40
73780;SHT30;62093;37.614;15.072;2023-04-24T00:07:44;17.35;59.49
73780;SHT30;62093;37.614;15.072;2023-04-24T00:10:10;17.35;59.68
73780;SHT30;62093;37.614;15.072;2023-04-24T00:12:36;17.38;59.56
73780;SHT30;62093;37.614;15.072;2023-04-24T00:15:03;17.31;59.42
73780;SHT30;62093;37.614;15.072;2023-04-24T00:17:29;17.32;59.41
73780;SHT30;62093;37.614;15.072;2023-04-24T00:19:55;17.35;59.70
73780;SHT30;62093;37.614;15.072;2023-04-24T00:22:24;17.32;59.73
73780;SHT30;62093;37.614;15.072;2023-04-24T00:24:50;17.34;59.58
73780;SHT30;62093;37.614;15.072;2023-04-24T00:27:16;17.31;59.57
73780;SHT30;62093;37.614;15.072;2023-04-24T00:29:42;17.32;59.52
73780;SHT30;62093;37.614;15.072;2023-04-24T00:32:08;17.32;59.56
73780;SHT30;62093;37.614;15.072;2023-04-24T00:34:34;17.30;59.71
73780;SHT30;62093;37.614;15.072;2023-04-24T00:37:00;17.31;59.73
73780;SHT30;62093;37.614;15.072;2023-04-24T00:39:26;17.31;59.86
73780;SHT30;62093;37.614;15.072;2023-04-24T00:41:52;17.30;59.75
73780;SHT30;62093;37.614;15.072;2023-04-24T00:44:19;17.31;59.62
73780;SHT30;62093;37.614;15.072;2023-04-24T00:46:45;17.30;59.81
73780;SHT30;62093;37.614;15.072;2023-04-24T00:49:12;17.31;59.87
73780;SHT30;62093;37.614;15.072;2023-04-24T00:51:38;17.28;59.82
73780;SHT30;62093;37.614;15.072;2023-04-24T00:54:04;17.28;59.92
73780;SHT30;62093;37.614;15.072;2023-04-24T00:56:31;17.27;59.92
73780;SHT30;62093;37.614;15.072;2023-04-24T00:58:57;17.30;59.88
73780;SHT30;62093;37.614;15.072;2023-04-24T01:01:23;17.30;59.82
73780;SHT30;62093;37.614;15.072;2023-04-24T01:03:51;17.28;59.94
73780;SHT30;62093;37.614;15.072;2023-04-24T01:06:19;17.27;60.12
73780;SHT30;62093;37.614;15.072;2023-04-24T01:08:46;17.28;59.91
73780;SHT30;62093;37.614;15.072;2023-04-24T01:11:13;17.27;60.07
73780;SHT30;62093;37.614;15.072;2023-04-24T01:13:39;17.28;60.00
73780;SHT30;62093;37.614;15.072;2023-04-24T01:16:05;17.28;60.07
73780;SHT30;62093;37.614;15.072;2023-04-24T01:18:33;17.30;59.95
73780;SHT30;62093;37.614;15.072;2023-04-24T01:21:02;17.30;60.09
73780;SHT30;62093;37.614;15.072;2023-04-24T01:23:30;17.30;60.05
73780;SHT30;62093;37.614;15.072;2023-04-24T01:25:56;17.28;59.95
73780;SHT30;62093;37.614;15.072;2023-04-24T01:28:24;17.30;60.03
73780;SHT30;62093;37.614;15.072;2023-04-24T01:30:50;17.30;60.03
73780;SHT30;62093;37.614;15.072;2023-04-24T01:33:16;17.30;60.08
73780;SHT30;62093;37.614;15.072;2023-04-24T01:35:42;17.28;59.82
73780;SHT30;62093;37.614;15.072;2023-04-24T01:38:08;17.31;59.95
73780;SHT30;62093;37.614;15.072;2023-04-24T01:40:35;17.27;59.86
73780;SHT30;62093;37.614;15.072;2023-04-24T01:43:01;17.31;59.82
73780;SHT30;62093;37.614;15.072;2023-04-24T01:45:29;17.30;60.02
73780;SHT30;62093;37.614;15.072;2023-04-24T01:47:56;17.31;59.97
73780;SHT30;62093;37.614;15.072;2023-04-24T01:50:23;17.30;59.97
73780;SHT30;62093;37.614;15.072;2023-04-24T01:52:49;17.30;59.80
73780;SHT30;62093;37.614;15.072;2023-04-24T01:55:15;17.28;59.88
73780;SHT30;62093;37.614;15.072;2023-04-24T01:57:41;17.32;59.80
73780;SHT30;62093;37.614;15.072;2023-04-24T02:00:07;17.31;59.74
73780;SHT30;62093;37.614;15.072;2023-04-24T02:02:40;17.30;59.75
73780;SHT30;62093;37.614;15.072;2023-04-24T02:05:07;17.30;59.59
73780;SHT30;62093;37.614;15.072;2023-04-24T02:07:35;17.32;59.83
73780;SHT30;62093;37.614;15.072;2023-04-24T02:10:02;17.30;59.86
73780;SHT30;62093;37.614;15.072;2023-04-24T02:12:28;17.30;59.68
73780;SHT30;62093;37.614;15.072;2023-04-24T02:14:53;17.30;59.76
73780;SHT30;62093;37.614;15.072;2023-04-24T02:17:19;17.27;59.51
73780;SHT30;62093;37.614;15.072;2023-04-24T02:19:45;17.27;59.43
73780;SHT30;62093;37.614;15.072;2023-04-24T02:22:12;17.28;59.63
73780;SHT30;62093;37.614;15.072;2023-04-24T02:24:38;17.27;59.45
73780;SHT30;62093;37.614;15.072;2023-04-24T02:27:06;17.27;59.84
73780;SHT30;62093;37.614;15.072;2023-04-24T02:29:32;17.27;59.74
73780;SHT30;62093;37.614;15.072;2023-04-24T02:31:58;17.27;59.59
73780;SHT30;62093;37.614;15.072;2023-04-24T02:34:24;17.27;59.72
73780;SHT30;62093;37.614;15.072;2023-04-24T02:36:50;17.25;59.65
73780;SHT30;62093;37.614;15.072;2023-04-24T02:39:16;17.23;59.83
73780;SHT30;62093;37.614;15.072;2023-04-24T02:41:43;17.27;59.68
73780;SHT30;62093;37.614;15.072;2023-04-24T02:44:09;17.25;59.85
73780;SHT30;62093;37.614;15.072;2023-04-24T02:46:35;17.24;59.75
73780;SHT30;62093;37.614;15.072;2023-04-24T02:49:01;17.24;59.79
73780;SHT30;62093;37.614;15.072;2023-04-24T02:51:29;17.24;59.61
73780;SHT30;62093;37.614;15.072;2023-04-24T02:53:55;17.21;59.30
73780;SHT30;62093;37.614;15.072;2023-04-24T02:56:21;17.21;59.08
73780;SHT30;62093;37.614;15.072;2023-04-24T02:58:46;17.23;59.01
73780;SHT30;62093;37.614;15.072;2023-04-24T03:01:12;17.21;58.66
73780;SHT30;62093;37.614;15.072;2023-04-24T03:03:38;17.21;58.78
73780;SHT30;62093;37.614;15.072;2023-04-24T03:06:05;17.24;58.35
73780;SHT30;62093;37.614;15.072;2023-04-24T03:08:33;17.24;58.32
73780;SHT30;62093;37.614;15.072;2023-04-24T03:11:00;17.25;58.77
73780;SHT30;62093;37.614;15.072;2023-04-24T03:13:25;17.27;59.45
73780;SHT30;62093;37.614;15.072;2023-04-24T03:15:51;17.28;59.26
73780;SHT30;62093;37.614;15.072;2023-04-24T03:18:18;17.25;58.90
73780;SHT30;62093;37.614;15.072;2023-04-24T03:20:46;17.25;58.91
73780;SHT30;62093;37.614;15.072;2023-04-24T03:23:13;17.25;58.48
73780;SHT30;62093;37.614;15.072;2023-04-24T03:25:39;17.27;58.86
73780;SHT30;62093;37.614;15.072;2023-04-24T03:28:07;17.28;58.40
73780;SHT30;62093;37.614;15.072;2023-04-24T03:30:38;17.30;58.85
73780;SHT30;62093;37.614;15.072;2023-04-24T03:33:05;17.25;58.48
73780;SHT30;62093;37.614;15.072;2023-04-24T03:35:35;17.28;58.85
73780;SHT30;62093;37.614;15.072;2023-04-24T03:38:04;17.27;58.48
73780;SHT30;62093;37.614;15.072;2023-04-24T03:40:48;17.30;58.82
73780;SHT30;62093;37.614;15.072;2023-04-24T03:43:34;17.31;58.89
73780;SHT30;62093;37.614;15.072;2023-04-24T03:46:01;17.31;59.20
73780;SHT30;62093;37.614;15.072;2023-04-24T03:48:29;17.34;58.72
73780;SHT30;62093;37.614;15.072;2023-04-24T03:50:55;17.31;58.94
73780;SHT30;62093;37.614;15.072;2023-04-24T03:53:22;17.31;58.94
73780;SHT30;62093;37.614;15.072;2023-04-24T03:55:49;17.31;59.10
73780;SHT30;62093;37.614;15.072;2023-04-24T03:58:15;17.31;59.05
73780;SHT30;62093;37.614;15.072;2023-04-24T04:00:42;17.32;59.03
73780;SHT30;62093;37.614;15.072;2023-04-24T04:03:42;17.31;58.87
73780;SHT30;62093;37.614;15.072;2023-04-24T04:06:08;17.30;59.34
73780;SHT30;62093;37.614;15.072;2023-04-24T04:08:37;17.34;59.11
73780;SHT30;62093;37.614;15.072;2023-04-24T04:11:02;17.32;59.09
73780;SHT30;62093;37.614;15.072;2023-04-24T04:13:28;17.30;58.94
73780;SHT30;62093;37.614;15.072;2023-04-24T04:15:56;17.30;58.86
73780;SHT30;62093;37.614;15.072;2023-04-24T04:18:21;17.30;58.78
73780;SHT30;62093;37.614;15.072;2023-04-24T04:20:47;17.30;58.93
73780;SHT30;62093;37.614;15.072;2023-04-24T04:23:17;17.31;58.93
73780;SHT30;62093;37.614;15.072;2023-04-24T04:26:01;17.30;58.66
73780;SHT30;62093;37.614;15.072;2023-04-24T04:28:39;17.31;59.14
73780;SHT30;62093;37.614;15.072;2023-04-24T04:31:05;17.27;59.09
73780;SHT30;62093;37.614;15.072;2023-04-24T04:33:33;17.27;59.13
73780;SHT30;62093;37.614;15.072;2023-04-24T04:36:01;17.30;58.90
73780;SHT30;62093;37.614;15.072;2023-04-24T04:38:30;17.28;59.23
73780;SHT30;62093;37.614;15.072;2023-04-24T04:41:03;17.28;58.59
73780;SHT30;62093;37.614;15.072;2023-04-24T04:43:32;17.27;59.33
73780;SHT30;62093;37.614;15.072;2023-04-24T04:45:58;17.27;58.98
73780;SHT30;62093;37.614;15.072;2023-04-24T04:48:53;17.30;58.79
73780;SHT30;62093;37.614;15.072;2023-04-24T04:51:19;17.27;58.94
73780;SHT30;62093;37.614;15.072;2023-04-24T04:53:45;17.28;59.15
73780;SHT30;62093;37.614;15.072;2023-04-24T04:56:11;17.28;59.01
73780;SHT30;62093;37.614;15.072;2023-04-24T04:58:42;17.31;59.13
73780;SHT30;62093;37.614;15.072;2023-04-24T05:01:11;17.28;59.25
73780;SHT30;62093;37.614;15.072;2023-04-24T05:03:41;17.28;59.05
73780;SHT30;62093;37.614;15.072;2023-04-24T05:06:09;17.30;58.85
73780;SHT30;62093;37.614;15.072;2023-04-24T05:08:38;17.30;59.22
73780;SHT30;62093;37.614;15.072;2023-04-24T05:11:07;17.31;59.05
73780;SHT30;62093;37.614;15.072;2023-04-24T05:13:33;17.28;59.35
73780;SHT30;62093;37.614;15.072;2023-04-24T05:16:00;17.31;59.38
73780;SHT30;62093;37.614;15.072;2023-04-24T05:18:27;17.28;59.30
73780;SHT30;62093;37.614;15.072;2023-04-24T05:20:53;17.27;59.26
73780;SHT30;62093;37.614;15.072;2023-04-24T05:23:19;17.28;59.26
73780;SHT30;62093;37.614;15.072;2023-04-24T05:25:49;17.31;59.08
73780;SHT30;62093;37.614;15.072;2023-04-24T05:28:15;17.32;59.55
73780;SHT30;62093;37.614;15.072;2023-04-24T05:30:44;17.32;59.37
73780;SHT30;62093;37.614;15.072;2023-04-24T05:33:15;17.31;58.99
73780;SHT30;62093;37.614;15.072;2023-04-24T05:35:41;17.32;59.55
73780;SHT30;62093;37.614;15.072;2023-04-24T05:38:13;17.32;59.13
73780;SHT30;62093;37.614;15.072;2023-04-24T05:40:40;17.32;59.35
73780;SHT30;62093;37.614;15.072;2023-04-24T05:43:06;17.35;59.38
73780;SHT30;62093;37.614;15.072;2023-04-24T05:45:31;17.34;59.37
73780;SHT30;62093;37.614;15.072;2023-04-24T05:47:57;17.34;59.39
73780;SHT30;62093;37.614;15.072;2023-04-24T05:50:23;17.34;59.39
73780;SHT30;62093;37.614;15.072;2023-04-24T05:52:49;17.35;59.49
73780;SHT30;62093;37.614;15.072;2023-04-24T05:55:24;17.34;59.15
73780;SHT30;62093;37.614;15.072;2023-04-24T05:57:52;17.36;59.24
73780;SHT30;62093;37.614;15.072;2023-04-24T06:00:18;17.35;59.17
73780;SHT30;62093;37.614;15.072;2023-04-24T06:02:51;17.34;59.07
73780;SHT30;62093;37.614;15.072;2023-04-24T06:05:20;17.36;59.14
73780;SHT30;62093;37.614;15.072;2023-04-24T06:07:45;17.36;59.33
73780;SHT30;62093;37.614;15.072;2023-04-24T06:10:12;17.38;59.44
73780;SHT30;62093;37.614;15.072;2023-04-24T06:12:41;17.38;59.18
73780;SHT30;62093;37.614;15.072;2023-04-24T06:15:13;17.38;59.05
73780;SHT30;62093;37.614;15.072;2023-04-24T06:17:57;17.41;59.28
73780;SHT30;62093;37.614;15.072;2023-04-24T06:20:25;17.42;59.19
73780;SHT30;62093;37.614;15.072;2023-04-24T06:22:51;17.41;59.13
73780;SHT30;62093;37.614;15.072;2023-04-24T06:25:18;17.42;59.12
73780;SHT30;62093;37.614;15.072;2023-04-24T06:27:44;17.44;59.13
73780;SHT30;62093;37.614;15.072;2023-04-24T06:30:10;17.42;58.24
73780;SHT30;62093;37.614;15.072;2023-04-24T06:32:37;17.42;58.41
73780;SHT30;62093;37.614;15.072;2023-04-24T06:35:04;17.41;57.08
73780;SHT30;62093;37.614;15.072;2023-04-24T06:37:30;17.41;57.09
73780;SHT30;62093;37.614;15.072;2023-04-24T06:39:56;17.44;57.38
73780;SHT30;62093;37.614;15.072;2023-04-24T06:42:21;17.44;57.94
73780;SHT30;62093;37.614;15.072;2023-04-24T06:44:49;17.46;56.85
73780;SHT30;62093;37.614;15.072;2023-04-24T06:47:15;17.45;57.47
73780;SHT30;62093;37.614;15.072;2023-04-24T06:49:41;17.45;57.96
73780;SHT30;62093;37.614;15.072;2023-04-24T06:52:07;17.45;57.87
73780;SHT30;62093;37.614;15.072;2023-04-24T06:54:33;17.49;58.48
73780;SHT30;62093;37.614;15.072;2023-04-24T06:56:59;17.49;58.56
73780;SHT30;62093;37.614;15.072;2023-04-24T06:59:27;17.49;58.50
73780;SHT30;62093;37.614;15.072;2023-04-24T07:01:53;17.49;58.61
73780;SHT30;62093;37.614;15.072;2023-04-24T07:04:19;17.51;58.64
73780;SHT30;62093;37.614;15.072;2023-04-24T07:06:45;17.52;58.70
73780;SHT30;62093;37.614;15.072;2023-04-24T07:09:14;17.52;58.60
73780;SHT30;62093;37.614;15.072;2023-04-24T07:11:41;17.52;58.44
73780;SHT30;62093;37.614;15.072;2023-04-24T07:14:07;17.54;58.77
73780;SHT30;62093;37.614;15.072;2023-04-24T07:16:34;17.52;58.81
73780;SHT30;62093;37.614;15.072;2023-04-24T07:19:00;17.52;58.78
73780;SHT30;62093;37.614;15.072;2023-04-24T07:21:25;17.54;58.80
73780;SHT30;62093;37.614;15.072;2023-04-24T07:23:52;17.55;58.80
73780;SHT30;62093;37.614;15.072;2023-04-24T07:26:19;17.55;58.83
73780;SHT30;62093;37.614;15.072;2023-04-24T07:28:45;17.56;58.74
73780;SHT30;62093;37.614;15.072;2023-04-24T07:31:11;17.55;58.72
73780;SHT30;62093;37.614;15.072;2023-04-24T07:33:37;17.58;58.82
73780;SHT30;62093;37.614;15.072;2023-04-24T07:36:03;17.58;58.80
73780;SHT30;62093;37.614;15.072;2023-04-24T07:38:30;17.56;58.84
73780;SHT30;62093;37.614;15.072;2023-04-24T07:40:56;17.59;58.78
73780;SHT30;62093;37.614;15.072;2023-04-24T07:43:23;17.61;58.81
73780;SHT30;62093;37.614;15.072;2023-04-24T07:45:53;17.61;58.81
73780;SHT30;62093;37.614;15.072;2023-04-24T07:48:19;17.59;58.61
73780;SHT30;62093;37.614;15.072;2023-04-24T07:50:46;17.58;58.44
73780;SHT30;62093;37.614;15.072;2023-04-24T07:53:12;17.59;58.57
73780;SHT30;62093;37.614;15.072;2023-04-24T07:55:38;17.59;57.51
73780;SHT30;62093;37.614;15.072;2023-04-24T07:58:04;17.59;57.30
73780;SHT30;62093;37.614;15.072;2023-04-24T08:00:30;17.61;57.80
73780;SHT30;62093;37.614;15.072;2023-04-24T08:02:56;17.61;56.66
73780;SHT30;62093;37.614;15.072;2023-04-24T08:05:22;17.62;57.64
73780;SHT30;62093;37.614;15.072;2023-04-24T08:07:48;17.65;57.63
73780;SHT30;62093;37.614;15.072;2023-04-24T08:10:15;17.63;57.83
73780;SHT30;62093;37.614;15.072;2023-04-24T08:12:41;17.66;57.81
73780;SHT30;62093;37.614;15.072;2023-04-24T08:15:08;17.65;57.99
73780;SHT30;62093;37.614;15.072;2023-04-24T08:17:34;17.66;57.84
73780;SHT30;62093;37.614;15.072;2023-04-24T08:20:02;17.68;57.63
73780;SHT30;62093;37.614;15.072;2023-04-24T08:22:28;17.69;58.02
73780;SHT30;62093;37.614;15.072;2023-04-24T08:24:54;17.71;58.03
73780;SHT30;62093;37.614;15.072;2023-04-24T08:27:21;17.71;58.09
73780;SHT30;62093;37.614;15.072;2023-04-24T08:29:47;17.69;58.12
73780;SHT30;62093;37.614;15.072;2023-04-24T08:32:13;17.71;57.75
73780;SHT30;62093;37.614;15.072;2023-04-24T08:34:39;17.71;58.13
73780;SHT30;62093;37.614;15.072;2023-04-24T08:37:05;17.72;58.18
73780;SHT30;62093;37.614;15.072;2023-04-24T08:39:31;17.73;58.19
73780;SHT30;62093;37.614;15.072;2023-04-24T08:41:57;17.72;58.18
73780;SHT30;62093;37.614;15.072;2023-04-24T08:44:34;17.76;58.21
73780;SHT30;62093;37.614;15.072;2023-04-24T08:47:04;17.76;58.19
73780;SHT30;62093;37.614;15.072;2023-04-24T08:49:31;17.78;58.19
73780;SHT30;62093;37.614;15.072;2023-04-24T08:51:56;17.76;58.18
73780;SHT30;62093;37.614;15.072;2023-04-24T08:54:23;17.76;58.20
73780;SHT30;62093;37.614;15.072;2023-04-24T08:56:50;17.81;58.21
73780;SHT30;62093;37.614;15.072;2023-04-24T08:59:19;17.79;58.23
73780;SHT30;62093;37.614;15.072;2023-04-24T09:01:48;17.82;58.21
73780;SHT30;62093;37.614;15.072;2023-04-24T09:04:15;17.81;58.20
73780;SHT30;62093;37.614;15.072;2023-04-24T09:06:43;17.83;58.17
73780;SHT30;62093;37.614;15.072;2023-04-24T09:09:10;17.83;58.15
73780;SHT30;62093;37.614;15.072;2023-04-24T09:11:37;17.86;58.11
73780;SHT30;62093;37.614;15.072;2023-04-24T09:14:03;17.86;58.08
73780;SHT30;62093;37.614;15.072;2023-04-24T09:16:29;17.85;58.16
73780;SHT30;62093;37.614;15.072;2023-04-24T09:18:55;17.87;58.11
73780;SHT30;62093;37.614;15.072;2023-04-24T09:21:22;17.86;58.07
73780;SHT30;62093;37.614;15.072;2023-04-24T09:23:58;17.86;58.04
73780;SHT30;62093;37.614;15.072;2023-04-24T09:26:25;17.90;58.03
73780;SHT30;62093;37.614;15.072;2023-04-24T09:28:51;17.92;58.04
73780;SHT30;62093;37.614;15.072;2023-04-24T09:31:18;17.90;58.03
73780;SHT30;62093;37.614;15.072;2023-04-24T09:34:04;17.92;58.01
73780;SHT30;62093;37.614;15.072;2023-04-24T09:36:34;17.92;57.94
73780;SHT30;62093;37.614;15.072;2023-04-24T09:39:07;17.93;57.92
73780;SHT30;62093;37.614;15.072;2023-04-24T09:41:33;17.93;57.90
73780;SHT30;62093;37.614;15.072;2023-04-24T09:44:14;17.95;57.89
73780;SHT30;62093;37.614;15.072;2023-04-24T09:46:45;17.93;57.88
73780;SHT30;62093;37.614;15.072;2023-04-24T09:49:16;17.96;57.86
73780;SHT30;62093;37.614;15.072;2023-04-24T09:51:42;17.96;57.88
73780;SHT30;62093;37.614;15.072;2023-04-24T09:54:17;17.96;57.83
73780;SHT30;62093;37.614;15.072;2023-04-24T09:56:48;17.99;57.80
73780;SHT30;62093;37.614;15.072;2023-04-24T09:59:17;18.00;57.80
73780;SHT30;62093;37.614;15.072;2023-04-24T10:01:44;18.00;57.80
73780;SHT30;62093;37.614;15.072;2023-04-24T10:04:17;18.00;57.77
73780;SHT30;62093;37.614;15.072;2023-04-24T10:06:44;18.00;57.74
73780;SHT30;62093;37.614;15.072;2023-04-24T10:09:10;18.03;57.74
73780;SHT30;62093;37.614;15.072;2023-04-24T10:11:47;18.03;57.76
73780;SHT30;62093;37.614;15.072;2023-04-24T10:14:17;18.02;57.71
73780;SHT30;62093;37.614;15.072;2023-04-24T10:16:44;18.03;57.66
73780;SHT30;62093;37.614;15.072;2023-04-24T10:19:13;18.04;57.65
73780;SHT30;62093;37.614;15.072;2023-04-24T10:21:41;18.04;57.63
73780;SHT30;62093;37.614;15.072;2023-04-24T10:24:14;18.07;57.61
73780;SHT30;62093;37.614;15.072;2023-04-24T10:26:41;18.07;57.57
73780;SHT30;62093;37.614;15.072;2023-04-24T10:29:08;18.07;57.56
73780;SHT30;62093;37.614;15.072;2023-04-24T10:31:37;18.07;57.56
73780;SHT30;62093;37.614;15.072;2023-04-24T10:34:07;18.09;57.51
73780;SHT30;62093;37.614;15.072;2023-04-24T10:36:36;18.10;57.52
73780;SHT30;62093;37.614;15.072;2023-04-24T10:39:03;18.10;57.46
73780;SHT30;62093;37.614;15.072;2023-04-24T10:41:32;18.12;57.48
73780;SHT30;62093;37.614;15.072;2023-04-24T10:44:35;18.14;57.48
73780;SHT30;62093;37.614;15.072;2023-04-24T10:47:01;18.14;57.40
73780;SHT30;62093;37.614;15.072;2023-04-24T10:49:29;18.13;57.40
73780;SHT30;62093;37.614;15.072;2023-04-24T10:52:00;18.16;57.36
73780;SHT30;62093;37.614;15.072;2023-04-24T10:59:50;18.18;57.29
73780;SHT30;62093;37.614;15.072;2023-04-24T11:02:17;18.17;57.27
73780;SHT30;62093;37.614;15.072;2023-04-24T11:04:44;18.16;57.28
73780;SHT30;62093;37.614;15.072;2023-04-24T11:07:11;18.17;57.22
73780;SHT30;62093;37.614;15.072;2023-04-24T11:09:37;18.17;57.18
73780;SHT30;62093;37.614;15.072;2023-04-24T11:12:06;18.20;57.21
73780;SHT30;62093;37.614;15.072;2023-04-24T11:17:38;18.22;57.12
73780;SHT30;62093;37.614;15.072;2023-04-24T11:20:07;18.20;57.15
73780;SHT30;62093;37.614;15.072;2023-04-24T11:22:39;18.23;57.09
73780;SHT30;62093;37.614;15.072;2023-04-24T11:25:09;18.24;57.06
73780;SHT30;62093;37.614;15.072;2023-04-24T11:27:42;18.26;57.05
73780;SHT30;62093;37.614;15.072;2023-04-24T11:30:10;18.26;57.01
73780;SHT30;62093;37.614;15.072;2023-04-24T11:32:39;18.27;56.99
73780;SHT30;62093;37.614;15.072;2023-04-24T11:35:17;18.29;56.96
73780;SHT30;62093;37.614;15.072;2023-04-24T11:37:45;18.29;56.92
73780;SHT30;62093;37.614;15.072;2023-04-24T11:40:14;18.30;56.90
73780;SHT30;62093;37.614;15.072;2023-04-24T11:42:45;18.30;56.83
73780;SHT30;62093;37.614;15.072;2023-04-24T11:45:14;18.32;56.86
73780;SHT30;62093;37.614;15.072;2023-04-24T11:47:41;18.36;56.82
73780;SHT30;62093;37.614;15.072;2023-04-24T11:50:09;18.34;56.80
73780;SHT30;62093;37.614;15.072;2023-04-24T11:52:40;18.36;56.78
73780;SHT30;62093;37.614;15.072;2023-04-24T11:55:23;18.34;56.73
73780;SHT30;62093;37.614;15.072;2023-04-24T11:57:58;18.38;56.71
73780;SHT30;62093;37.614;15.072;2023-04-24T12:00:30;18.38;56.66
73780;SHT30;62093;37.614;15.072;2023-04-24T12:03:09;18.38;56.68
73780;SHT30;62093;37.614;15.072;2023-04-24T12:05:37;18.40;56.61
73780;SHT30;62093;37.614;15.072;2023-04-24T12:08:03;18.41;56.64
73780;SHT30;62093;37.614;15.072;2023-04-24T12:10:32;18.43;56.59
73780;SHT30;62093;37.614;15.072;2023-04-24T12:12:59;18.41;56.57
73780;SHT30;62093;37.614;15.072;2023-04-24T12:15:26;18.44;56.55
73780;SHT30;62093;37.614;15.072;2023-04-24T12:17:53;18.43;56.54
73780;SHT30;62093;37.614;15.072;2023-04-24T12:20:30;18.43;56.48
73780;SHT30;62093;37.614;15.072;2023-04-24T12:22:59;18.45;56.46
73780;SHT30;62093;37.614;15.072;2023-04-24T12:25:27;18.45;56.45
73780;SHT30;62093;37.614;15.072;2023-04-24T12:28:12;18.47;56.44
73780;SHT30;62093;37.614;15.072;2023-04-24T12:33:06;18.48;56.41
73780;SHT30;62093;37.614;15.072;2023-04-24T12:35:33;18.48;56.37
73780;SHT30;62093;37.614;15.072;2023-04-24T12:38:06;18.50;56.37
73780;SHT30;62093;37.614;15.072;2023-04-24T12:40:33;18.51;56.38
73780;SHT30;62093;37.614;15.072;2023-04-24T12:42:59;18.53;56.33
73780;SHT30;62093;37.614;15.072;2023-04-24T12:45:25;18.51;56.31
73780;SHT30;62093;37.614;15.072;2023-04-24T12:47:53;18.53;56.28
73780;SHT30;62093;37.614;15.072;2023-04-24T12:50:19;18.54;56.28
73780;SHT30;62093;37.614;15.072;2023-04-24T12:52:45;18.57;56.25
73780;SHT30;62093;37.614;15.072;2023-04-24T12:55:11;18.57;56.24
73780;SHT30;62093;37.614;15.072;2023-04-24T12:57:39;18.55;56.23
73780;SHT30;62093;37.614;15.072;2023-04-24T13:00:06;18.57;56.23
73780;SHT30;62093;37.614;15.072;2023-04-24T13:02:33;18.60;56.18
73780;SHT30;62093;37.614;15.072;2023-04-24T13:04:59;18.60;56.17
73780;SHT30;62093;37.614;15.072;2023-04-24T13:07:26;18.60;56.18
73780;SHT30;62093;37.614;15.072;2023-04-24T13:09:53;18.61;56.13
73780;SHT30;62093;37.614;15.072;2023-04-24T13:12:19;18.61;56.13
73780;SHT30;62093;37.614;15.072;2023-04-24T13:14:45;18.65;56.11
73780;SHT30;62093;37.614;15.072;2023-04-24T13:17:12;18.64;56.06
73780;SHT30;62093;37.614;15.072;2023-04-24T13:19:41;18.65;56.05
73780;SHT30;62093;37.614;15.072;2023-04-24T13:22:09;18.67;55.99
73780;SHT30;62093;37.614;15.072;2023-04-24T13:24:36;18.69;56.00
73780;SHT30;62093;37.614;15.072;2023-04-24T13:27:03;18.71;55.98
73780;SHT30;62093;37.614;15.072;2023-04-24T13:29:29;18.69;55.94
73780;SHT30;62093;37.614;15.072;2023-04-24T13:31:56;18.69;55.93
73780;SHT30;62093;37.614;15.072;2023-04-24T13:34:26;18.72;55.87
73780;SHT30;62093;37.614;15.072;2023-04-24T13:36:53;18.71;55.85
73780;SHT30;62093;37.614;15.072;2023-04-24T13:39:21;18.72;55.84
73780;SHT30;62093;37.614;15.072;2023-04-24T13:41:47;18.72;55.84
73780;SHT30;62093;37.614;15.072;2023-04-24T13:44:14;18.72;55.85
73780;SHT30;62093;37.614;15.072;2023-04-24T13:46:41;18.74;55.84
73780;SHT30;62093;37.614;15.072;2023-04-24T13:49:09;18.74;55.80
73780;SHT30;62093;37.614;15.072;2023-04-24T13:51:35;18.75;55.79
73780;SHT30;62093;37.614;15.072;2023-04-24T13:54:01;18.75;55.78
73780;SHT30;62093;37.614;15.072;2023-04-24T13:56:27;18.74;55.78
73780;SHT30;62093;37.614;15.072;2023-04-24T13:58:53;18.76;55.79
73780;SHT30;62093;37.614;15.072;2023-04-24T14:01:22;18.79;55.74
73780;SHT30;62093;37.614;15.072;2023-04-24T14:03:55;18.78;55.72
73780;SHT30;62093;37.614;15.072;2023-04-24T14:06:21;18.79;55.70
73780;SHT30;62093;37.614;15.072;2023-04-24T14:08:49;18.78;55.71
73780;SHT30;62093;37.614;15.072;2023-04-24T14:11:16;18.79;55.69
73780;SHT30;62093;37.614;15.072;2023-04-24T14:13:43;18.79;55.69
73780;SHT30;62093;37.614;15.072;2023-04-24T14:16:10;18.79;55.70
73780;SHT30;62093;37.614;15.072;2023-04-24T14:18:36;18.81;55.68
73780;SHT30;62093;37.614;15.072;2023-04-24T14:21:06;18.81;55.64
73780;SHT30;62093;37.614;15.072;2023-04-24T14:23:32;18.83;55.69
73780;SHT30;62093;37.614;15.072;2023-04-24T14:25:58;18.79;55.64
73780;SHT30;62093;37.614;15.072;2023-04-24T14:28:25;18.81;55.71
73780;SHT30;62093;37.614;15.072;2023-04-24T14:30:52;18.79;55.67
73780;SHT30;62093;37.614;15.072;2023-04-24T14:33:18;18.78;55.71
73780;SHT30;62093;37.614;15.072;2023-04-24T14:35:45;18.78;55.69
73780;SHT30;62093;37.614;15.072;2023-04-24T14:38:11;18.75;55.72
73780;SHT30;62093;37.614;15.072;2023-04-24T14:40:37;18.79;55.72
73780;SHT30;62093;37.614;15.072;2023-04-24T14:43:03;18.75;55.74
73780;SHT30;62093;37.614;15.072;2023-04-24T14:45:29;18.75;55.73
73780;SHT30;62093;37.614;15.072;2023-04-24T14:47:56;18.76;55.73
73780;SHT30;62093;37.614;15.072;2023-04-24T14:50:22;18.76;55.75
73780;SHT30;62093;37.614;15.072;2023-04-24T14:52:48;18.75;55.80
73780;SHT30;62093;37.614;15.072;2023-04-24T14:55:14;18.75;55.81
73780;SHT30;62093;37.614;15.072;2023-04-24T14:57:40;18.75;55.79
73780;SHT30;62093;37.614;15.072;2023-04-24T15:00:06;18.72;55.80
73780;SHT30;62093;37.614;15.072;2023-04-24T15:02:34;18.75;55.81
73780;SHT30;62093;37.614;15.072;2023-04-24T15:05:03;18.72;55.81
73780;SHT30;62093;37.614;15.072;2023-04-24T15:07:29;18.72;55.81
73780;SHT30;62093;37.614;15.072;2023-04-24T15:09:56;18.74;55.82
73780;SHT30;62093;37.614;15.072;2023-04-24T15:12:22;18.74;55.80
73780;SHT30;62093;37.614;15.072;2023-04-24T15:14:48;18.74;55.83
73780;SHT30;62093;37.614;15.072;2023-04-24T15:17:14;18.74;55.83
73780;SHT30;62093;37.614;15.072;2023-04-24T15:19:40;18.72;55.84
73780;SHT30;62093;37.614;15.072;2023-04-24T15:22:05;18.74;55.85
73780;SHT30;62093;37.614;15.072;2023-04-24T15:24:31;18.72;55.86
73780;SHT30;62093;37.614;15.072;2023-04-24T15:26:58;18.72;55.87
73780;SHT30;62093;37.614;15.072;2023-04-24T15:29:25;18.72;55.83